sensor_id;sensor_type;location;lat;lon;timestamp;P1;durP1;ratioP1;P2;durP2;ratioP2
60213;SDS011;46080;46.904;19.688;2022-09-27T00:00:26;16.77;;;14.15;;
60213;SDS011;46080;46.904;19.688;2022-09-27T00:02:51;15.10;;;13.60;;
60213;SDS011;46080;46.904;19.688;2022-09-27T00:05:17;16.58;;;13.88;;
60213;SDS011;46080;46.904;19.688;2022-09-27T00:07:43;17.92;;;15.07;;
60213;SDS011;46080;46.904;19.688;2022-09-27T00:10:10;17.52;;;15.48;;
60213;SDS011;46080;46.904;19.688;2022-09-27T00:12:36;17.25;;;13.70;;
60213;SDS011;46080;46.904;19.688;2022-09-27T00:15:03;14.05;;;12.52;;
60213;SDS011;46080;46.904;19.688;2022-09-27T00:17:29;13.05;;;11.73;;
60213;SDS011;46080;46.904;19.688;2022-09-27T00:19:57;13.32;;;11.93;;
60213;SDS011;46080;46.904;19.688;2022-09-27T00:22:24;15.48;;;12.27;;
60213;SDS011;46080;46.904;19.688;2022-09-27T00:24:51;18.92;;;13.65;;
60213;SDS011;46080;46.904;19.688;2022-09-27T00:27:17;15.18;;;13.02;;
60213;SDS011;46080;46.904;19.688;2022-09-27T00:29:43;14.50;;;13.00;;
60213;SDS011;46080;46.904;19.688;2022-09-27T00:32:09;16.10;;;14.38;;
60213;SDS011;46080;46.904;19.688;2022-09-27T00:34:36;18.80;;;15.00;;
60213;SDS011;46080;46.904;19.688;2022-09-27T00:37:02;18.63;;;15.13;;
60213;SDS011;46080;46.904;19.688;2022-09-27T00:39:27;17.30;;;15.25;;
60213;SDS011;46080;46.904;19.688;2022-09-27T00:41:53;17.92;;;14.35;;
60213;SDS011;46080;46.904;19.688;2022-09-27T00:49:40;20.20;;;15.18;;
60213;SDS011;46080;46.904;19.688;2022-09-27T00:52:17;16.27;;;14.52;;
60213;SDS011;46080;46.904;19.688;2022-09-27T00:54:46;16.35;;;14.63;;
60213;SDS011;46080;46.904;19.688;2022-09-27T00:57:15;16.58;;;14.65;;
60213;SDS011;46080;46.904;19.688;2022-09-27T00:59:44;18.05;;;15.20;;
60213;SDS011;46080;46.904;19.688;2022-09-27T01:02:31;18.08;;;15.10;;
60213;SDS011;46080;46.904;19.688;2022-09-27T01:05:00;16.23;;;14.43;;
60213;SDS011;46080;46.904;19.688;2022-09-27T01:07:29;15.45;;;13.85;;
60213;SDS011;46080;46.904;19.688;2022-09-27T01:09:55;18.02;;;15.50;;
60213;SDS011;46080;46.904;19.688;2022-09-27T01:17:40;16.40;;;14.70;;
60213;SDS011;46080;46.904;19.688;2022-09-27T01:31:31;13.20;;;11.90;;
60213;SDS011;46080;46.904;19.688;2022-09-27T01:34:07;13.20;;;10.40;;
60213;SDS011;46080;46.904;19.688;2022-09-27T01:36:47;11.45;;;10.38;;
60213;SDS011;46080;46.904;19.688;2022-09-27T01:43:11;10.60;;;9.60;;
60213;SDS011;46080;46.904;19.688;2022-09-27T01:45:25;11.20;;;10.10;;
60213;SDS011;46080;46.904;19.688;2022-09-27T01:48:23;11.32;;;9.57;;
60213;SDS011;46080;46.904;19.688;2022-09-27T01:52:03;11.38;;;10.23;;
60213;SDS011;46080;46.904;19.688;2022-09-27T01:54:03;10.45;;;9.45;;
60213;SDS011;46080;46.904;19.688;2022-09-27T01:56:34;13.95;;;9.50;;
60213;SDS011;46080;46.904;19.688;2022-09-27T01:59:14;9.43;;;8.48;;
60213;SDS011;46080;46.904;19.688;2022-09-27T02:01:55;11.02;;;9.93;;
60213;SDS011;46080;46.904;19.688;2022-09-27T02:04:31;10.90;;;9.80;;
60213;SDS011;46080;46.904;19.688;2022-09-27T02:07:14;12.98;;;11.48;;
60213;SDS011;46080;46.904;19.688;2022-09-27T02:09:51;11.43;;;10.32;;
60213;SDS011;46080;46.904;19.688;2022-09-27T02:12:45;12.00;;;10.90;;
60213;SDS011;46080;46.904;19.688;2022-09-27T02:15:16;12.07;;;10.40;;
60213;SDS011;46080;46.904;19.688;2022-09-27T02:17:58;18.00;;;11.98;;
60213;SDS011;46080;46.904;19.688;2022-09-27T02:20:29;17.30;;;12.55;;
60213;SDS011;46080;46.904;19.688;2022-09-27T02:23:18;12.20;;;10.25;;
60213;SDS011;46080;46.904;19.688;2022-09-27T02:25:59;13.00;;;10.80;;
60213;SDS011;46080;46.904;19.688;2022-09-27T02:28:30;18.90;;;10.57;;
60213;SDS011;46080;46.904;19.688;2022-09-27T02:31:01;14.68;;;9.98;;
60213;SDS011;46080;46.904;19.688;2022-09-27T02:33:39;13.93;;;10.93;;
60213;SDS011;46080;46.904;19.688;2022-09-27T02:36:06;13.20;;;10.55;;
60213;SDS011;46080;46.904;19.688;2022-09-27T02:38:34;11.75;;;10.50;;
60213;SDS011;46080;46.904;19.688;2022-09-27T02:41:01;12.05;;;10.85;;
60213;SDS011;46080;46.904;19.688;2022-09-27T02:43:28;11.13;;;10.00;;
60213;SDS011;46080;46.904;19.688;2022-09-27T03:03:54;10.52;;;9.45;;
60213;SDS011;46080;46.904;19.688;2022-09-27T03:06:28;11.18;;;8.32;;
60213;SDS011;46080;46.904;19.688;2022-09-27T03:08:56;10.18;;;8.00;;
60213;SDS011;46080;46.904;19.688;2022-09-27T03:11:22;12.13;;;8.68;;
60213;SDS011;46080;46.904;19.688;2022-09-27T03:13:48;14.00;;;8.63;;
60213;SDS011;46080;46.904;19.688;2022-09-27T03:16:14;12.73;;;8.20;;
60213;SDS011;46080;46.904;19.688;2022-09-27T03:19:04;8.90;;;8.00;;
60213;SDS011;46080;46.904;19.688;2022-09-27T03:21:48;17.42;;;8.80;;
60213;SDS011;46080;46.904;19.688;2022-09-27T03:24:14;20.13;;;8.93;;
60213;SDS011;46080;46.904;19.688;2022-09-27T03:26:40;9.45;;;7.72;;
60213;SDS011;46080;46.904;19.688;2022-09-27T03:29:06;13.50;;;9.13;;
60213;SDS011;46080;46.904;19.688;2022-09-27T03:31:32;10.75;;;9.77;;
60213;SDS011;46080;46.904;19.688;2022-09-27T03:34:36;11.32;;;10.05;;
60213;SDS011;46080;46.904;19.688;2022-09-27T03:37:02;10.20;;;9.18;;
60213;SDS011;46080;46.904;19.688;2022-09-27T03:39:28;10.23;;;9.23;;
60213;SDS011;46080;46.904;19.688;2022-09-27T03:41:54;10.02;;;8.95;;
60213;SDS011;46080;46.904;19.688;2022-09-27T03:44:19;10.85;;;8.75;;
60213;SDS011;46080;46.904;19.688;2022-09-27T03:46:45;13.63;;;10.35;;
60213;SDS011;46080;46.904;19.688;2022-09-27T03:49:11;12.02;;;9.73;;
60213;SDS011;46080;46.904;19.688;2022-09-27T03:51:37;12.50;;;9.50;;
60213;SDS011;46080;46.904;19.688;2022-09-27T03:54:02;15.75;;;11.60;;
60213;SDS011;46080;46.904;19.688;2022-09-27T03:56:28;16.13;;;11.43;;
60213;SDS011;46080;46.904;19.688;2022-09-27T03:58:54;18.35;;;14.73;;
60213;SDS011;46080;46.904;19.688;2022-09-27T04:01:22;14.65;;;12.43;;
60213;SDS011;46080;46.904;19.688;2022-09-27T04:03:53;20.75;;;13.85;;
60213;SDS011;46080;46.904;19.688;2022-09-27T04:06:26;15.45;;;13.27;;
60213;SDS011;46080;46.904;19.688;2022-09-27T04:08:52;16.27;;;10.57;;
60213;SDS011;46080;46.904;19.688;2022-09-27T04:11:20;17.02;;;9.60;;
60213;SDS011;46080;46.904;19.688;2022-09-27T04:13:48;12.80;;;8.95;;
60213;SDS011;46080;46.904;19.688;2022-09-27T04:16:15;16.00;;;10.07;;
60213;SDS011;46080;46.904;19.688;2022-09-27T04:18:59;16.90;;;10.38;;
60213;SDS011;46080;46.904;19.688;2022-09-27T04:21:32;18.38;;;9.50;;
60213;SDS011;46080;46.904;19.688;2022-09-27T04:23:58;17.23;;;9.13;;
60213;SDS011;46080;46.904;19.688;2022-09-27T04:26:25;17.42;;;8.52;;
60213;SDS011;46080;46.904;19.688;2022-09-27T04:31:23;15.07;;;8.52;;
60213;SDS011;46080;46.904;19.688;2022-09-27T04:34:24;18.13;;;8.38;;
60213;SDS011;46080;46.904;19.688;2022-09-27T04:37:10;14.68;;;7.38;;
60213;SDS011;46080;46.904;19.688;2022-09-27T04:39:39;11.43;;;9.10;;
60213;SDS011;46080;46.904;19.688;2022-09-27T04:42:05;18.60;;;7.88;;
60213;SDS011;46080;46.904;19.688;2022-09-27T04:44:31;10.93;;;7.40;;
60213;SDS011;46080;46.904;19.688;2022-09-27T04:46:57;13.75;;;7.35;;
60213;SDS011;46080;46.904;19.688;2022-09-27T04:49:22;9.75;;;6.10;;
60213;SDS011;46080;46.904;19.688;2022-09-27T04:51:48;8.25;;;7.43;;
60213;SDS011;46080;46.904;19.688;2022-09-27T04:54:14;11.77;;;6.38;;
60213;SDS011;46080;46.904;19.688;2022-09-27T04:56:49;9.00;;;7.28;;
60213;SDS011;46080;46.904;19.688;2022-09-27T04:59:15;7.20;;;6.30;;
60213;SDS011;46080;46.904;19.688;2022-09-27T05:01:41;20.30;;;8.18;;
60213;SDS011;46080;46.904;19.688;2022-09-27T05:04:18;12.38;;;6.82;;
60213;SDS011;46080;46.904;19.688;2022-09-27T05:06:49;7.80;;;7.03;;
60213;SDS011;46080;46.904;19.688;2022-09-27T05:11:49;16.55;;;6.93;;
60213;SDS011;46080;46.904;19.688;2022-09-27T05:14:14;9.90;;;6.53;;
60213;SDS011;46080;46.904;19.688;2022-09-27T05:16:49;8.50;;;6.78;;
60213;SDS011;46080;46.904;19.688;2022-09-27T05:19:55;8.23;;;7.15;;
60213;SDS011;46080;46.904;19.688;2022-09-27T05:22:41;10.60;;;8.07;;
60213;SDS011;46080;46.904;19.688;2022-09-27T05:25:07;9.13;;;6.82;;
60213;SDS011;46080;46.904;19.688;2022-09-27T05:27:33;9.52;;;8.52;;
60213;SDS011;46080;46.904;19.688;2022-09-27T05:30:00;10.50;;;7.68;;
60213;SDS011;46080;46.904;19.688;2022-09-27T05:32:38;8.88;;;7.78;;
60213;SDS011;46080;46.904;19.688;2022-09-27T05:35:26;16.30;;;9.77;;
60213;SDS011;46080;46.904;19.688;2022-09-27T05:37:55;16.88;;;10.07;;
60213;SDS011;46080;46.904;19.688;2022-09-27T05:40:23;11.23;;;8.85;;
60213;SDS011;46080;46.904;19.688;2022-09-27T05:42:52;10.27;;;8.38;;
60213;SDS011;46080;46.904;19.688;2022-09-27T05:45:19;12.15;;;9.27;;
60213;SDS011;46080;46.904;19.688;2022-09-27T05:47:56;11.98;;;9.23;;
60213;SDS011;46080;46.904;19.688;2022-09-27T05:50:24;12.48;;;9.80;;
60213;SDS011;46080;46.904;19.688;2022-09-27T05:52:51;11.55;;;8.98;;
60213;SDS011;46080;46.904;19.688;2022-09-27T05:55:18;11.90;;;10.25;;
60213;SDS011;46080;46.904;19.688;2022-09-27T05:57:54;12.52;;;9.52;;
60213;SDS011;46080;46.904;19.688;2022-09-27T06:00:30;12.45;;;10.40;;
60213;SDS011;46080;46.904;19.688;2022-09-27T06:02:59;13.35;;;9.88;;
60213;SDS011;46080;46.904;19.688;2022-09-27T06:05:44;13.52;;;10.18;;
60213;SDS011;46080;46.904;19.688;2022-09-27T06:08:42;16.73;;;11.10;;
60213;SDS011;46080;46.904;19.688;2022-09-27T06:11:12;16.15;;;11.40;;
60213;SDS011;46080;46.904;19.688;2022-09-27T06:13:38;15.13;;;12.35;;
60213;SDS011;46080;46.904;19.688;2022-09-27T06:16:05;17.70;;;13.38;;
60213;SDS011;46080;46.904;19.688;2022-09-27T06:18:33;23.23;;;14.52;;
60213;SDS011;46080;46.904;19.688;2022-09-27T06:20:59;20.00;;;13.82;;
60213;SDS011;46080;46.904;19.688;2022-09-27T06:23:26;16.02;;;12.80;;
60213;SDS011;46080;46.904;19.688;2022-09-27T06:25:54;16.75;;;13.20;;
60213;SDS011;46080;46.904;19.688;2022-09-27T06:28:28;16.90;;;13.95;;
60213;SDS011;46080;46.904;19.688;2022-09-27T06:30:55;16.88;;;14.25;;
60213;SDS011;46080;46.904;19.688;2022-09-27T06:33:37;17.70;;;14.02;;
60213;SDS011;46080;46.904;19.688;2022-09-27T06:36:03;19.02;;;14.02;;
60213;SDS011;46080;46.904;19.688;2022-09-27T06:38:32;20.15;;;13.25;;
60213;SDS011;46080;46.904;19.688;2022-09-27T06:41:20;20.92;;;13.90;;
60213;SDS011;46080;46.904;19.688;2022-09-27T06:44:04;16.83;;;13.20;;
60213;SDS011;46080;46.904;19.688;2022-09-27T06:46:49;17.55;;;14.70;;
60213;SDS011;46080;46.904;19.688;2022-09-27T06:49:17;16.38;;;14.18;;
60213;SDS011;46080;46.904;19.688;2022-09-27T06:51:45;17.55;;;13.70;;
60213;SDS011;46080;46.904;19.688;2022-09-27T06:54:11;16.42;;;12.88;;
60213;SDS011;46080;46.904;19.688;2022-09-27T06:56:37;17.75;;;13.63;;
60213;SDS011;46080;46.904;19.688;2022-09-27T06:59:02;14.38;;;12.73;;
60213;SDS011;46080;46.904;19.688;2022-09-27T07:01:46;14.00;;;12.20;;
60213;SDS011;46080;46.904;19.688;2022-09-27T07:04:31;15.10;;;12.70;;
60213;SDS011;46080;46.904;19.688;2022-09-27T07:07:05;15.00;;;13.18;;
60213;SDS011;46080;46.904;19.688;2022-09-27T07:09:37;18.33;;;14.90;;
60213;SDS011;46080;46.904;19.688;2022-09-27T07:12:05;17.67;;;14.65;;
60213;SDS011;46080;46.904;19.688;2022-09-27T07:14:31;16.00;;;14.30;;
60213;SDS011;46080;46.904;19.688;2022-09-27T07:16:59;15.40;;;13.57;;
60213;SDS011;46080;46.904;19.688;2022-09-27T07:19:31;16.08;;;13.15;;
60213;SDS011;46080;46.904;19.688;2022-09-27T07:21:56;17.27;;;13.98;;
60213;SDS011;46080;46.904;19.688;2022-09-27T07:24:22;15.80;;;13.45;;
60213;SDS011;46080;46.904;19.688;2022-09-27T07:26:48;17.13;;;13.70;;
60213;SDS011;46080;46.904;19.688;2022-09-27T07:29:17;13.55;;;12.02;;
60213;SDS011;46080;46.904;19.688;2022-09-27T07:31:43;13.95;;;12.18;;
60213;SDS011;46080;46.904;19.688;2022-09-27T07:34:09;16.00;;;13.95;;
60213;SDS011;46080;46.904;19.688;2022-09-27T07:36:36;14.88;;;13.18;;
60213;SDS011;46080;46.904;19.688;2022-09-27T07:39:02;16.23;;;12.98;;
60213;SDS011;46080;46.904;19.688;2022-09-27T07:41:31;15.80;;;13.65;;
60213;SDS011;46080;46.904;19.688;2022-09-27T07:43:57;18.55;;;15.63;;
60213;SDS011;46080;46.904;19.688;2022-09-27T07:46:24;16.90;;;14.93;;
60213;SDS011;46080;46.904;19.688;2022-09-27T07:48:56;18.20;;;14.87;;
60213;SDS011;46080;46.904;19.688;2022-09-27T07:51:41;21.63;;;17.13;;
60213;SDS011;46080;46.904;19.688;2022-09-27T07:54:27;15.20;;;13.52;;
60213;SDS011;46080;46.904;19.688;2022-09-27T07:57:15;17.48;;;14.25;;
60213;SDS011;46080;46.904;19.688;2022-09-27T07:59:48;13.38;;;10.32;;
60213;SDS011;46080;46.904;19.688;2022-09-27T08:02:17;11.68;;;8.18;;
60213;SDS011;46080;46.904;19.688;2022-09-27T08:04:44;9.90;;;7.47;;
60213;SDS011;46080;46.904;19.688;2022-09-27T08:07:13;9.73;;;7.88;;
60213;SDS011;46080;46.904;19.688;2022-09-27T08:09:41;10.32;;;7.22;;
60213;SDS011;46080;46.904;19.688;2022-09-27T08:12:08;8.57;;;6.32;;
60213;SDS011;46080;46.904;19.688;2022-09-27T08:14:35;10.20;;;7.40;;
60213;SDS011;46080;46.904;19.688;2022-09-27T08:17:01;8.43;;;6.43;;
60213;SDS011;46080;46.904;19.688;2022-09-27T08:19:26;9.07;;;6.90;;
60213;SDS011;46080;46.904;19.688;2022-09-27T08:22:12;9.00;;;6.93;;
60213;SDS011;46080;46.904;19.688;2022-09-27T08:25:04;8.25;;;6.90;;
60213;SDS011;46080;46.904;19.688;2022-09-27T08:27:53;9.38;;;7.13;;
60213;SDS011;46080;46.904;19.688;2022-09-27T08:30:32;11.70;;;7.85;;
60213;SDS011;46080;46.904;19.688;2022-09-27T08:33:00;8.27;;;6.10;;
60213;SDS011;46080;46.904;19.688;2022-09-27T08:35:27;9.70;;;7.50;;
60213;SDS011;46080;46.904;19.688;2022-09-27T08:37:55;8.88;;;6.95;;
60213;SDS011;46080;46.904;19.688;2022-09-27T08:40:24;8.05;;;5.30;;
60213;SDS011;46080;46.904;19.688;2022-09-27T08:43:07;7.63;;;5.80;;
60213;SDS011;46080;46.904;19.688;2022-09-27T08:45:46;7.30;;;5.20;;
60213;SDS011;46080;46.904;19.688;2022-09-27T08:48:28;8.23;;;5.18;;
60213;SDS011;46080;46.904;19.688;2022-09-27T08:50:56;8.30;;;5.05;;
60213;SDS011;46080;46.904;19.688;2022-09-27T08:53:25;6.70;;;5.57;;
60213;SDS011;46080;46.904;19.688;2022-09-27T08:55:58;6.40;;;5.15;;
60213;SDS011;46080;46.904;19.688;2022-09-27T08:58:46;6.60;;;5.05;;
60213;SDS011;46080;46.904;19.688;2022-09-27T09:01:22;6.88;;;4.60;;
60213;SDS011;46080;46.904;19.688;2022-09-27T09:03:58;8.07;;;5.47;;
60213;SDS011;46080;46.904;19.688;2022-09-27T09:21:05;8.10;;;6.53;;
60213;SDS011;46080;46.904;19.688;2022-09-27T09:39:18;6.40;;;5.20;;
60213;SDS011;46080;46.904;19.688;2022-09-27T09:47:34;6.55;;;5.75;;
60213;SDS011;46080;46.904;19.688;2022-09-27T09:50:19;9.07;;;6.93;;
60213;SDS011;46080;46.904;19.688;2022-09-27T09:52:54;6.28;;;5.00;;
60213;SDS011;46080;46.904;19.688;2022-09-27T09:55:28;8.65;;;5.80;;
60213;SDS011;46080;46.904;19.688;2022-09-27T09:58:04;9.43;;;6.07;;
60213;SDS011;46080;46.904;19.688;2022-09-27T10:00:59;8.48;;;6.07;;
60213;SDS011;46080;46.904;19.688;2022-09-27T10:03:38;7.53;;;5.38;;
60213;SDS011;46080;46.904;19.688;2022-09-27T10:06:04;7.30;;;5.72;;
60213;SDS011;46080;46.904;19.688;2022-09-27T10:08:31;7.57;;;5.43;;
60213;SDS011;46080;46.904;19.688;2022-09-27T10:11:22;7.07;;;5.45;;
60213;SDS011;46080;46.904;19.688;2022-09-27T10:14:20;7.75;;;5.88;;
60213;SDS011;46080;46.904;19.688;2022-09-27T10:16:54;8.82;;;5.90;;
60213;SDS011;46080;46.904;19.688;2022-09-27T10:19:30;7.63;;;5.32;;
60213;SDS011;46080;46.904;19.688;2022-09-27T10:22:02;8.80;;;6.60;;
60213;SDS011;46080;46.904;19.688;2022-09-27T10:24:52;7.43;;;5.70;;
60213;SDS011;46080;46.904;19.688;2022-09-27T10:27:37;7.88;;;6.57;;
60213;SDS011;46080;46.904;19.688;2022-09-27T10:30:11;7.68;;;6.07;;
60213;SDS011;46080;46.904;19.688;2022-09-27T10:32:48;7.93;;;6.22;;
60213;SDS011;46080;46.904;19.688;2022-09-27T10:35:38;8.40;;;6.22;;
60213;SDS011;46080;46.904;19.688;2022-09-27T10:40:47;6.22;;;5.13;;
60213;SDS011;46080;46.904;19.688;2022-09-27T10:43:23;6.40;;;5.43;;
60213;SDS011;46080;46.904;19.688;2022-09-27T10:48:38;6.38;;;5.05;;
60213;SDS011;46080;46.904;19.688;2022-09-27T10:53:53;5.72;;;5.10;;
60213;SDS011;46080;46.904;19.688;2022-09-27T10:56:30;8.23;;;5.82;;
60213;SDS011;46080;46.904;19.688;2022-09-27T10:58:59;7.15;;;5.93;;
60213;SDS011;46080;46.904;19.688;2022-09-27T11:01:41;7.82;;;6.05;;
60213;SDS011;46080;46.904;19.688;2022-09-27T11:04:43;7.03;;;5.25;;
60213;SDS011;46080;46.904;19.688;2022-09-27T11:07:27;6.68;;;5.05;;
60213;SDS011;46080;46.904;19.688;2022-09-27T11:10:06;6.18;;;5.45;;
60213;SDS011;46080;46.904;19.688;2022-09-27T11:13:03;7.28;;;6.25;;
60213;SDS011;46080;46.904;19.688;2022-09-27T11:15:30;5.90;;;5.22;;
60213;SDS011;46080;46.904;19.688;2022-09-27T11:20:47;6.05;;;4.45;;
60213;SDS011;46080;46.904;19.688;2022-09-27T11:43:35;5.40;;;4.00;;
60213;SDS011;46080;46.904;19.688;2022-09-27T11:54:20;3.88;;;2.92;;
60213;SDS011;46080;46.904;19.688;2022-09-27T11:57:08;4.00;;;2.92;;
60213;SDS011;46080;46.904;19.688;2022-09-27T12:10:38;5.22;;;3.97;;
60213;SDS011;46080;46.904;19.688;2022-09-27T12:13:07;4.38;;;3.97;;
60213;SDS011;46080;46.904;19.688;2022-09-27T12:15:39;5.93;;;4.10;;
60213;SDS011;46080;46.904;19.688;2022-09-27T12:18:16;5.65;;;3.85;;
60213;SDS011;46080;46.904;19.688;2022-09-27T12:20:51;4.95;;;3.80;;
60213;SDS011;46080;46.904;19.688;2022-09-27T12:26:38;5.18;;;4.13;;
60213;SDS011;46080;46.904;19.688;2022-09-27T12:34:53;6.30;;;4.10;;
60213;SDS011;46080;46.904;19.688;2022-09-27T12:37:30;5.65;;;4.05;;
60213;SDS011;46080;46.904;19.688;2022-09-27T12:43:05;6.35;;;4.05;;
60213;SDS011;46080;46.904;19.688;2022-09-27T12:52:00;7.13;;;3.85;;
60213;SDS011;46080;46.904;19.688;2022-09-27T13:05:10;6.95;;;4.57;;
60213;SDS011;46080;46.904;19.688;2022-09-27T13:13:24;10.55;;;5.38;;
60213;SDS011;46080;46.904;19.688;2022-09-27T13:15:55;6.55;;;5.10;;
60213;SDS011;46080;46.904;19.688;2022-09-27T13:18:30;8.80;;;6.15;;
60213;SDS011;46080;46.904;19.688;2022-09-27T13:20:56;6.47;;;4.65;;
60213;SDS011;46080;46.904;19.688;2022-09-27T13:26:21;6.28;;;5.05;;
60213;SDS011;46080;46.904;19.688;2022-09-27T13:29:01;5.93;;;4.65;;
60213;SDS011;46080;46.904;19.688;2022-09-27T13:34:53;4.47;;;3.85;;
60213;SDS011;46080;46.904;19.688;2022-09-27T13:40:09;6.47;;;4.38;;
60213;SDS011;46080;46.904;19.688;2022-09-27T13:57:03;4.80;;;3.63;;
60213;SDS011;46080;46.904;19.688;2022-09-27T13:59:38;5.95;;;4.68;;
60213;SDS011;46080;46.904;19.688;2022-09-27T14:02:18;5.70;;;5.03;;
60213;SDS011;46080;46.904;19.688;2022-09-27T14:04:51;7.22;;;4.63;;
60213;SDS011;46080;46.904;19.688;2022-09-27T14:07:20;5.20;;;4.22;;
60213;SDS011;46080;46.904;19.688;2022-09-27T14:09:53;6.07;;;4.65;;
60213;SDS011;46080;46.904;19.688;2022-09-27T14:12:25;7.70;;;5.60;;
60213;SDS011;46080;46.904;19.688;2022-09-27T14:14:55;8.03;;;4.93;;
60213;SDS011;46080;46.904;19.688;2022-09-27T14:17:23;7.20;;;5.03;;
60213;SDS011;46080;46.904;19.688;2022-09-27T14:19:51;6.07;;;4.45;;
60213;SDS011;46080;46.904;19.688;2022-09-27T14:22:21;4.93;;;4.05;;
60213;SDS011;46080;46.904;19.688;2022-09-27T14:25:01;6.03;;;4.60;;
60213;SDS011;46080;46.904;19.688;2022-09-27T14:27:34;6.25;;;5.13;;
60213;SDS011;46080;46.904;19.688;2022-09-27T14:30:20;7.70;;;5.03;;
60213;SDS011;46080;46.904;19.688;2022-09-27T14:33:24;8.15;;;4.15;;
60213;SDS011;46080;46.904;19.688;2022-09-27T14:35:52;5.50;;;4.32;;
60213;SDS011;46080;46.904;19.688;2022-09-27T14:38:48;5.75;;;4.40;;
60213;SDS011;46080;46.904;19.688;2022-09-27T14:41:33;7.22;;;4.22;;
60213;SDS011;46080;46.904;19.688;2022-09-27T14:46:29;4.47;;;3.75;;
60213;SDS011;46080;46.904;19.688;2022-09-27T14:48:56;6.82;;;4.78;;
60213;SDS011;46080;46.904;19.688;2022-09-27T14:51:28;6.57;;;4.35;;
60213;SDS011;46080;46.904;19.688;2022-09-27T14:53:57;6.75;;;4.47;;
60213;SDS011;46080;46.904;19.688;2022-09-27T14:56:35;7.63;;;4.80;;
60213;SDS011;46080;46.904;19.688;2022-09-27T14:59:24;7.43;;;4.53;;
60213;SDS011;46080;46.904;19.688;2022-09-27T15:01:58;5.38;;;3.75;;
60213;SDS011;46080;46.904;19.688;2022-09-27T15:04:28;7.32;;;4.80;;
60213;SDS011;46080;46.904;19.688;2022-09-27T15:06:56;6.57;;;4.65;;
60213;SDS011;46080;46.904;19.688;2022-09-27T15:09:24;4.90;;;3.55;;
60213;SDS011;46080;46.904;19.688;2022-09-27T15:11:55;5.20;;;4.20;;
60213;SDS011;46080;46.904;19.688;2022-09-27T15:14:25;6.03;;;4.78;;
60213;SDS011;46080;46.904;19.688;2022-09-27T15:16:53;5.13;;;3.95;;
60213;SDS011;46080;46.904;19.688;2022-09-27T15:19:23;5.55;;;3.90;;
60213;SDS011;46080;46.904;19.688;2022-09-27T15:27:16;6.32;;;4.07;;
60213;SDS011;46080;46.904;19.688;2022-09-27T15:29:49;4.43;;;4.03;;
60213;SDS011;46080;46.904;19.688;2022-09-27T15:32:16;5.85;;;4.22;;
60213;SDS011;46080;46.904;19.688;2022-09-27T15:34:46;5.00;;;3.88;;
60213;SDS011;46080;46.904;19.688;2022-09-27T15:45:50;6.35;;;4.40;;
60213;SDS011;46080;46.904;19.688;2022-09-27T15:48:20;6.15;;;4.70;;
60213;SDS011;46080;46.904;19.688;2022-09-27T15:50:46;5.85;;;4.20;;
60213;SDS011;46080;46.904;19.688;2022-09-27T15:53:54;7.18;;;5.85;;
60213;SDS011;46080;46.904;19.688;2022-09-27T15:56:02;5.55;;;4.30;;
60213;SDS011;46080;46.904;19.688;2022-09-27T15:58:30;6.93;;;5.40;;
60213;SDS011;46080;46.904;19.688;2022-09-27T16:00:58;5.28;;;4.78;;
60213;SDS011;46080;46.904;19.688;2022-09-27T16:03:26;5.63;;;3.58;;
60213;SDS011;46080;46.904;19.688;2022-09-27T16:05:56;2.65;;;1.20;;
60213;SDS011;46080;46.904;19.688;2022-09-27T16:08:23;2.95;;;1.15;;
60213;SDS011;46080;46.904;19.688;2022-09-27T16:10:52;2.45;;;1.27;;
60213;SDS011;46080;46.904;19.688;2022-09-27T16:13:23;1.58;;;0.80;;
60213;SDS011;46080;46.904;19.688;2022-09-27T16:15:49;1.55;;;0.80;;
60213;SDS011;46080;46.904;19.688;2022-09-27T16:18:16;1.48;;;0.75;;
60213;SDS011;46080;46.904;19.688;2022-09-27T16:20:42;0.80;;;0.60;;
60213;SDS011;46080;46.904;19.688;2022-09-27T16:23:08;0.93;;;0.70;;
60213;SDS011;46080;46.904;19.688;2022-09-27T16:25:34;2.28;;;0.57;;
60213;SDS011;46080;46.904;19.688;2022-09-27T16:28:01;2.20;;;0.68;;
60213;SDS011;46080;46.904;19.688;2022-09-27T16:30:28;1.27;;;0.77;;
60213;SDS011;46080;46.904;19.688;2022-09-27T16:32:55;2.30;;;0.82;;
60213;SDS011;46080;46.904;19.688;2022-09-27T16:35:23;1.23;;;0.63;;
60213;SDS011;46080;46.904;19.688;2022-09-27T16:37:50;1.70;;;0.70;;
60213;SDS011;46080;46.904;19.688;2022-09-27T16:40:16;2.65;;;0.90;;
60213;SDS011;46080;46.904;19.688;2022-09-27T16:42:43;2.60;;;0.90;;
60213;SDS011;46080;46.904;19.688;2022-09-27T16:45:09;1.33;;;0.60;;
60213;SDS011;46080;46.904;19.688;2022-09-27T16:47:35;3.20;;;2.08;;
60213;SDS011;46080;46.904;19.688;2022-09-27T16:50:04;2.53;;;1.08;;
60213;SDS011;46080;46.904;19.688;2022-09-27T16:52:48;4.80;;;2.33;;
60213;SDS011;46080;46.904;19.688;2022-09-27T16:55:16;6.97;;;4.03;;
60213;SDS011;46080;46.904;19.688;2022-09-27T16:57:45;3.08;;;1.40;;
60213;SDS011;46080;46.904;19.688;2022-09-27T17:00:12;1.92;;;1.20;;
60213;SDS011;46080;46.904;19.688;2022-09-27T17:02:38;2.67;;;1.40;;
60213;SDS011;46080;46.904;19.688;2022-09-27T17:05:04;1.85;;;1.02;;
60213;SDS011;46080;46.904;19.688;2022-09-27T17:07:30;1.83;;;1.10;;
60213;SDS011;46080;46.904;19.688;2022-09-27T17:09:56;1.70;;;1.20;;
60213;SDS011;46080;46.904;19.688;2022-09-27T17:12:22;2.55;;;1.38;;
60213;SDS011;46080;46.904;19.688;2022-09-27T17:14:48;2.03;;;1.38;;
60213;SDS011;46080;46.904;19.688;2022-09-27T17:17:14;2.25;;;1.35;;
60213;SDS011;46080;46.904;19.688;2022-09-27T17:19:40;1.85;;;1.23;;
60213;SDS011;46080;46.904;19.688;2022-09-27T17:22:06;2.85;;;1.20;;
60213;SDS011;46080;46.904;19.688;2022-09-27T17:24:33;1.83;;;1.30;;
60213;SDS011;46080;46.904;19.688;2022-09-27T17:26:59;1.67;;;1.17;;
60213;SDS011;46080;46.904;19.688;2022-09-27T17:29:25;2.75;;;1.45;;
60213;SDS011;46080;46.904;19.688;2022-09-27T17:31:51;4.30;;;1.65;;
60213;SDS011;46080;46.904;19.688;2022-09-27T17:34:16;1.70;;;1.08;;
60213;SDS011;46080;46.904;19.688;2022-09-27T17:36:43;2.20;;;1.10;;
60213;SDS011;46080;46.904;19.688;2022-09-27T17:39:13;2.45;;;1.60;;
60213;SDS011;46080;46.904;19.688;2022-09-27T17:41:41;2.50;;;1.73;;
60213;SDS011;46080;46.904;19.688;2022-09-27T17:44:11;3.30;;;1.23;;
60213;SDS011;46080;46.904;19.688;2022-09-27T17:46:39;2.53;;;1.50;;
60213;SDS011;46080;46.904;19.688;2022-09-27T17:49:05;2.75;;;1.17;;
60213;SDS011;46080;46.904;19.688;2022-09-27T17:51:50;2.15;;;1.05;;
60213;SDS011;46080;46.904;19.688;2022-09-27T17:54:17;6.18;;;2.60;;
60213;SDS011;46080;46.904;19.688;2022-09-27T17:56:46;2.72;;;2.08;;
60213;SDS011;46080;46.904;19.688;2022-09-27T17:59:12;3.20;;;1.88;;
60213;SDS011;46080;46.904;19.688;2022-09-27T18:01:42;2.53;;;1.50;;
60213;SDS011;46080;46.904;19.688;2022-09-27T18:04:10;5.07;;;2.80;;
60213;SDS011;46080;46.904;19.688;2022-09-27T18:06:38;4.03;;;2.42;;
60213;SDS011;46080;46.904;19.688;2022-09-27T18:09:09;2.55;;;2.03;;
60213;SDS011;46080;46.904;19.688;2022-09-27T18:11:36;3.17;;;1.42;;
60213;SDS011;46080;46.904;19.688;2022-09-27T18:14:03;2.15;;;1.40;;
60213;SDS011;46080;46.904;19.688;2022-09-27T18:16:31;2.75;;;1.48;;
60213;SDS011;46080;46.904;19.688;2022-09-27T18:19:01;1.90;;;1.00;;
60213;SDS011;46080;46.904;19.688;2022-09-27T18:21:29;1.67;;;1.10;;